sensor_id;sensor_type;location;lat;lon;timestamp;temperature;humidity
19805;DHT22;10062;51.052;13.756;2023-07-29T00:01:37;21.30;1.00
19805;DHT22;10062;51.052;13.756;2023-07-29T00:04:12;21.60;1.00
19805;DHT22;10062;51.052;13.756;2023-07-29T00:06:45;21.20;1.00
19805;DHT22;10062;51.052;13.756;2023-07-29T00:09:16;21.10;1.00
19805;DHT22;10062;51.052;13.756;2023-07-29T00:11:48;21.10;1.00
19805;DHT22;10062;51.052;13.756;2023-07-29T00:14:20;21.00;1.00
19805;DHT22;10062;51.052;13.756;2023-07-29T00:16:52;21.10;1.00
19805;DHT22;10062;51.052;13.756;2023-07-29T00:19:23;21.30;1.00
19805;DHT22;10062;51.052;13.756;2023-07-29T00:21:56;21.10;1.00
19805;DHT22;10062;51.052;13.756;2023-07-29T00:24:28;21.40;1.00
19805;DHT22;10062;51.052;13.756;2023-07-29T00:27:00;21.00;1.00
19805;DHT22;10062;51.052;13.756;2023-07-29T00:29:32;21.10;1.00
19805;DHT22;10062;51.052;13.756;2023-07-29T00:32:04;21.10;1.00
19805;DHT22;10062;51.052;13.756;2023-07-29T00:34:36;21.00;1.00
19805;DHT22;10062;51.052;13.756;2023-07-29T00:37:09;21.10;1.00
19805;DHT22;10062;51.052;13.756;2023-07-29T00:39:41;21.00;1.00
19805;DHT22;10062;51.052;13.756;2023-07-29T00:42:13;20.90;1.00
19805;DHT22;10062;51.052;13.756;2023-07-29T00:44:46;21.00;1.00
19805;DHT22;10062;51.052;13.756;2023-07-29T00:47:18;21.10;1.00
19805;DHT22;10062;51.052;13.756;2023-07-29T00:49:51;20.90;1.00
19805;DHT22;10062;51.052;13.756;2023-07-29T00:52:24;20.90;1.00
19805;DHT22;10062;51.052;13.756;2023-07-29T00:54:59;20.90;1.00
19805;DHT22;10062;51.052;13.756;2023-07-29T00:57:30;20.80;1.00
19805;DHT22;10062;51.052;13.756;2023-07-29T01:00:03;20.90;1.00
19805;DHT22;10062;51.052;13.756;2023-07-29T01:02:36;20.80;1.00
19805;DHT22;10062;51.052;13.756;2023-07-29T01:05:08;20.80;1.00
19805;DHT22;10062;51.052;13.756;2023-07-29T01:07:50;20.80;1.00
19805;DHT22;10062;51.052;13.756;2023-07-29T01:10:32;20.80;1.00
19805;DHT22;10062;51.052;13.756;2023-07-29T01:13:17;20.70;1.00
19805;DHT22;10062;51.052;13.756;2023-07-29T01:15:54;20.70;1.00
19805;DHT22;10062;51.052;13.756;2023-07-29T01:18:30;20.70;1.00
19805;DHT22;10062;51.052;13.756;2023-07-29T01:21:04;20.70;1.00
19805;DHT22;10062;51.052;13.756;2023-07-29T01:23:40;20.50;1.00
19805;DHT22;10062;51.052;13.756;2023-07-29T01:26:11;20.40;1.00
19805;DHT22;10062;51.052;13.756;2023-07-29T01:28:45;20.30;1.00
19805;DHT22;10062;51.052;13.756;2023-07-29T01:31:23;20.40;1.00
19805;DHT22;10062;51.052;13.756;2023-07-29T01:33:59;20.30;1.00
19805;DHT22;10062;51.052;13.756;2023-07-29T01:36:32;20.20;1.00
19805;DHT22;10062;51.052;13.756;2023-07-29T01:39:06;20.20;1.00
19805;DHT22;10062;51.052;13.756;2023-07-29T01:41:39;20.10;1.00
19805;DHT22;10062;51.052;13.756;2023-07-29T01:44:12;20.10;1.00
19805;DHT22;10062;51.052;13.756;2023-07-29T01:46:46;20.10;1.00
19805;DHT22;10062;51.052;13.756;2023-07-29T01:49:18;20.00;1.00
19805;DHT22;10062;51.052;13.756;2023-07-29T01:51:50;20.00;1.00
19805;DHT22;10062;51.052;13.756;2023-07-29T01:54:23;19.90;1.00
19805;DHT22;10062;51.052;13.756;2023-07-29T01:56:55;20.00;1.00
19805;DHT22;10062;51.052;13.756;2023-07-29T01:59:30;19.90;1.00
19805;DHT22;10062;51.052;13.756;2023-07-29T02:02:01;19.90;1.00
19805;DHT22;10062;51.052;13.756;2023-07-29T02:04:33;20.00;1.00
19805;DHT22;10062;51.052;13.756;2023-07-29T02:07:05;19.80;1.00
19805;DHT22;10062;51.052;13.756;2023-07-29T02:09:38;19.80;1.00
19805;DHT22;10062;51.052;13.756;2023-07-29T02:12:10;19.80;1.00
19805;DHT22;10062;51.052;13.756;2023-07-29T02:14:42;19.80;1.00
19805;DHT22;10062;51.052;13.756;2023-07-29T02:17:14;19.90;1.00
19805;DHT22;10062;51.052;13.756;2023-07-29T02:19:46;20.00;1.00
19805;DHT22;10062;51.052;13.756;2023-07-29T02:22:18;19.80;1.00
19805;DHT22;10062;51.052;13.756;2023-07-29T02:24:51;20.00;1.00
19805;DHT22;10062;51.052;13.756;2023-07-29T02:27:23;19.80;1.00
19805;DHT22;10062;51.052;13.756;2023-07-29T02:29:56;19.80;1.00
19805;DHT22;10062;51.052;13.756;2023-07-29T02:32:28;19.80;1.00
19805;DHT22;10062;51.052;13.756;2023-07-29T02:35:00;19.80;1.00
19805;DHT22;10062;51.052;13.756;2023-07-29T02:37:32;19.90;1.00
19805;DHT22;10062;51.052;13.756;2023-07-29T02:40:06;19.80;1.00
19805;DHT22;10062;51.052;13.756;2023-07-29T02:42:39;19.90;1.00
19805;DHT22;10062;51.052;13.756;2023-07-29T02:45:10;19.90;1.00
19805;DHT22;10062;51.052;13.756;2023-07-29T02:47:42;19.90;1.00
19805;DHT22;10062;51.052;13.756;2023-07-29T02:50:14;19.90;1.00
19805;DHT22;10062;51.052;13.756;2023-07-29T02:52:46;19.90;1.00
19805;DHT22;10062;51.052;13.756;2023-07-29T02:55:19;19.90;1.00
19805;DHT22;10062;51.052;13.756;2023-07-29T02:57:51;19.90;1.00
19805;DHT22;10062;51.052;13.756;2023-07-29T03:00:22;19.90;1.00
19805;DHT22;10062;51.052;13.756;2023-07-29T03:02:54;19.90;1.00
19805;DHT22;10062;51.052;13.756;2023-07-29T03:05:27;19.80;1.00
19805;DHT22;10062;51.052;13.756;2023-07-29T03:07:59;19.80;1.00
19805;DHT22;10062;51.052;13.756;2023-07-29T03:10:34;19.90;1.00
19805;DHT22;10062;51.052;13.756;2023-07-29T03:13:06;19.90;1.00
19805;DHT22;10062;51.052;13.756;2023-07-29T03:15:38;19.90;1.00
19805;DHT22;10062;51.052;13.756;2023-07-29T03:18:10;20.00;1.00
19805;DHT22;10062;51.052;13.756;2023-07-29T03:20:42;20.00;1.00
19805;DHT22;10062;51.052;13.756;2023-07-29T03:23:14;20.10;1.00
19805;DHT22;10062;51.052;13.756;2023-07-29T03:25:49;20.10;1.00
19805;DHT22;10062;51.052;13.756;2023-07-29T03:28:22;20.60;1.00
19805;DHT22;10062;51.052;13.756;2023-07-29T03:30:53;20.20;1.00
19805;DHT22;10062;51.052;13.756;2023-07-29T03:33:26;20.10;1.00
19805;DHT22;10062;51.052;13.756;2023-07-29T03:35:58;20.10;1.00
19805;DHT22;10062;51.052;13.756;2023-07-29T03:38:29;20.20;1.00
19805;DHT22;10062;51.052;13.756;2023-07-29T03:41:04;20.10;1.00
19805;DHT22;10062;51.052;13.756;2023-07-29T03:43:36;20.20;1.00
19805;DHT22;10062;51.052;13.756;2023-07-29T03:46:08;20.10;1.00
19805;DHT22;10062;51.052;13.756;2023-07-29T03:48:40;20.00;1.00
19805;DHT22;10062;51.052;13.756;2023-07-29T03:51:12;19.90;1.00
19805;DHT22;10062;51.052;13.756;2023-07-29T03:53:44;19.90;1.00
19805;DHT22;10062;51.052;13.756;2023-07-29T03:56:17;19.90;1.00
19805;DHT22;10062;51.052;13.756;2023-07-29T03:58:49;20.10;1.00
19805;DHT22;10062;51.052;13.756;2023-07-29T04:01:21;20.10;1.00
19805;DHT22;10062;51.052;13.756;2023-07-29T04:03:53;20.40;1.00
19805;DHT22;10062;51.052;13.756;2023-07-29T04:06:25;20.40;1.00
19805;DHT22;10062;51.052;13.756;2023-07-29T04:08:56;20.40;1.00
19805;DHT22;10062;51.052;13.756;2023-07-29T04:11:29;20.00;1.00
19805;DHT22;10062;51.052;13.756;2023-07-29T04:14:01;20.00;1.00
19805;DHT22;10062;51.052;13.756;2023-07-29T04:16:33;20.10;1.00
19805;DHT22;10062;51.052;13.756;2023-07-29T04:19:05;20.10;1.00
19805;DHT22;10062;51.052;13.756;2023-07-29T04:21:36;20.30;1.00
19805;DHT22;10062;51.052;13.756;2023-07-29T04:24:08;20.20;1.00
19805;DHT22;10062;51.052;13.756;2023-07-29T04:26:41;20.30;1.00
19805;DHT22;10062;51.052;13.756;2023-07-29T04:29:13;20.40;1.00
19805;DHT22;10062;51.052;13.756;2023-07-29T04:31:45;20.50;1.00
19805;DHT22;10062;51.052;13.756;2023-07-29T04:34:17;20.60;1.00
19805;DHT22;10062;51.052;13.756;2023-07-29T04:36:49;20.60;1.00
19805;DHT22;10062;51.052;13.756;2023-07-29T04:39:22;20.60;1.00
19805;DHT22;10062;51.052;13.756;2023-07-29T04:41:55;20.60;1.00
19805;DHT22;10062;51.052;13.756;2023-07-29T04:44:27;20.60;1.00
19805;DHT22;10062;51.052;13.756;2023-07-29T04:46:59;20.70;1.00
19805;DHT22;10062;51.052;13.756;2023-07-29T04:49:31;20.80;1.00
19805;DHT22;10062;51.052;13.756;2023-07-29T04:52:03;20.90;1.00
19805;DHT22;10062;51.052;13.756;2023-07-29T04:54:35;20.90;1.00
19805;DHT22;10062;51.052;13.756;2023-07-29T04:57:08;20.90;1.00
19805;DHT22;10062;51.052;13.756;2023-07-29T04:59:40;20.90;1.00
19805;DHT22;10062;51.052;13.756;2023-07-29T05:02:12;20.90;1.00
19805;DHT22;10062;51.052;13.756;2023-07-29T05:04:44;21.00;1.00
19805;DHT22;10062;51.052;13.756;2023-07-29T05:07:15;20.90;1.00
19805;DHT22;10062;51.052;13.756;2023-07-29T05:09:47;21.00;1.00
19805;DHT22;10062;51.052;13.756;2023-07-29T05:12:20;21.10;1.00
19805;DHT22;10062;51.052;13.756;2023-07-29T05:14:52;21.10;1.00
19805;DHT22;10062;51.052;13.756;2023-07-29T05:17:24;21.20;1.00
19805;DHT22;10062;51.052;13.756;2023-07-29T05:19:56;21.10;1.00
19805;DHT22;10062;51.052;13.756;2023-07-29T05:22:29;21.10;1.00
19805;DHT22;10062;51.052;13.756;2023-07-29T05:25:01;21.20;1.00
19805;DHT22;10062;51.052;13.756;2023-07-29T05:27:34;21.20;99.90
19805;DHT22;10062;51.052;13.756;2023-07-29T05:30:07;21.30;99.90
19805;DHT22;10062;51.052;13.756;2023-07-29T05:32:39;21.30;1.00
19805;DHT22;10062;51.052;13.756;2023-07-29T05:35:11;21.30;99.90
19805;DHT22;10062;51.052;13.756;2023-07-29T05:37:43;21.30;99.90
19805;DHT22;10062;51.052;13.756;2023-07-29T05:40:15;21.40;99.90
19805;DHT22;10062;51.052;13.756;2023-07-29T05:42:48;21.40;1.00
19805;DHT22;10062;51.052;13.756;2023-07-29T05:45:20;21.60;1.00
19805;DHT22;10062;51.052;13.756;2023-07-29T05:47:52;21.70;1.00
19805;DHT22;10062;51.052;13.756;2023-07-29T05:50:24;21.70;1.00
19805;DHT22;10062;51.052;13.756;2023-07-29T05:52:57;21.90;1.00
19805;DHT22;10062;51.052;13.756;2023-07-29T05:55:29;21.80;1.00
19805;DHT22;10062;51.052;13.756;2023-07-29T05:58:02;21.80;1.00
19805;DHT22;10062;51.052;13.756;2023-07-29T06:00:34;21.90;1.00
19805;DHT22;10062;51.052;13.756;2023-07-29T06:03:06;22.10;1.00
19805;DHT22;10062;51.052;13.756;2023-07-29T06:05:38;22.30;1.00
19805;DHT22;10062;51.052;13.756;2023-07-29T06:08:10;22.30;1.00
19805;DHT22;10062;51.052;13.756;2023-07-29T06:10:42;22.40;1.00
19805;DHT22;10062;51.052;13.756;2023-07-29T06:13:15;22.60;99.90
19805;DHT22;10062;51.052;13.756;2023-07-29T06:15:48;22.70;1.00
19805;DHT22;10062;51.052;13.756;2023-07-29T06:18:20;22.80;99.90
19805;DHT22;10062;51.052;13.756;2023-07-29T06:20:52;23.00;99.90
19805;DHT22;10062;51.052;13.756;2023-07-29T06:23:24;23.10;1.00
19805;DHT22;10062;51.052;13.756;2023-07-29T06:25:55;23.20;13.00
19805;DHT22;10062;51.052;13.756;2023-07-29T06:28:29;23.40;1.00
19805;DHT22;10062;51.052;13.756;2023-07-29T06:31:01;23.30;1.00
19805;DHT22;10062;51.052;13.756;2023-07-29T06:33:32;23.20;99.90
19805;DHT22;10062;51.052;13.756;2023-07-29T06:36:04;23.10;1.00
19805;DHT22;10062;51.052;13.756;2023-07-29T06:38:36;23.10;99.90
19805;DHT22;10062;51.052;13.756;2023-07-29T06:41:08;23.20;1.00
19805;DHT22;10062;51.052;13.756;2023-07-29T06:43:42;23.30;1.00
19805;DHT22;10062;51.052;13.756;2023-07-29T06:46:13;23.50;1.00
19805;DHT22;10062;51.052;13.756;2023-07-29T06:48:45;23.60;1.00
19805;DHT22;10062;51.052;13.756;2023-07-29T06:51:17;25.20;1.00
19805;DHT22;10062;51.052;13.756;2023-07-29T06:53:49;23.60;1.00
19805;DHT22;10062;51.052;13.756;2023-07-29T06:56:20;23.70;1.00
19805;DHT22;10062;51.052;13.756;2023-07-29T06:58:54;23.80;1.00
19805;DHT22;10062;51.052;13.756;2023-07-29T07:01:25;23.80;1.00
19805;DHT22;10062;51.052;13.756;2023-07-29T07:04:00;23.90;1.00
19805;DHT22;10062;51.052;13.756;2023-07-29T07:06:32;24.00;1.00
19805;DHT22;10062;51.052;13.756;2023-07-29T07:09:04;24.20;1.00
19805;DHT22;10062;51.052;13.756;2023-07-29T07:11:35;24.10;1.00
19805;DHT22;10062;51.052;13.756;2023-07-29T07:14:08;24.10;99.90
19805;DHT22;10062;51.052;13.756;2023-07-29T07:16:40;24.10;99.90
19805;DHT22;10062;51.052;13.756;2023-07-29T07:19:12;24.10;1.00
19805;DHT22;10062;51.052;13.756;2023-07-29T07:21:44;24.10;99.90
19805;DHT22;10062;51.052;13.756;2023-07-29T07:24:15;24.20;1.00
19805;DHT22;10062;51.052;13.756;2023-07-29T07:26:47;24.30;1.00
19805;DHT22;10062;51.052;13.756;2023-07-29T07:29:20;24.50;1.00
19805;DHT22;10062;51.052;13.756;2023-07-29T07:31:53;24.70;1.00
19805;DHT22;10062;51.052;13.756;2023-07-29T07:34:25;24.80;99.90
19805;DHT22;10062;51.052;13.756;2023-07-29T07:36:57;24.70;1.00
19805;DHT22;10062;51.052;13.756;2023-07-29T07:39:28;24.80;1.00
19805;DHT22;10062;51.052;13.756;2023-07-29T07:42:00;25.30;1.00
19805;DHT22;10062;51.052;13.756;2023-07-29T07:44:33;25.50;99.90
19805;DHT22;10062;51.052;13.756;2023-07-29T07:47:05;25.90;1.00
19805;DHT22;10062;51.052;13.756;2023-07-29T07:49:37;26.00;99.90
19805;DHT22;10062;51.052;13.756;2023-07-29T07:52:09;26.10;1.00
19805;DHT22;10062;51.052;13.756;2023-07-29T07:54:40;25.90;1.00
19805;DHT22;10062;51.052;13.756;2023-07-29T07:57:12;25.50;1.00
19805;DHT22;10062;51.052;13.756;2023-07-29T07:59:45;25.30;1.00
19805;DHT22;10062;51.052;13.756;2023-07-29T08:02:17;25.10;99.90
19805;DHT22;10062;51.052;13.756;2023-07-29T08:04:49;25.20;99.90
19805;DHT22;10062;51.052;13.756;2023-07-29T08:07:20;25.20;99.90
19805;DHT22;10062;51.052;13.756;2023-07-29T08:09:52;25.30;99.90
19805;DHT22;10062;51.052;13.756;2023-07-29T08:12:24;25.20;99.90
19805;DHT22;10062;51.052;13.756;2023-07-29T08:14:57;25.30;99.90
19805;DHT22;10062;51.052;13.756;2023-07-29T08:17:29;25.30;1.00
19805;DHT22;10062;51.052;13.756;2023-07-29T08:20:01;25.00;1.00
19805;DHT22;10062;51.052;13.756;2023-07-29T08:22:32;25.00;43.00
19805;DHT22;10062;51.052;13.756;2023-07-29T08:25:05;25.00;5.60
19805;DHT22;10062;51.052;13.756;2023-07-29T08:27:37;25.10;99.90
19805;DHT22;10062;51.052;13.756;2023-07-29T08:30:10;25.20;99.90
19805;DHT22;10062;51.052;13.756;2023-07-29T08:32:42;25.50;99.90
19805;DHT22;10062;51.052;13.756;2023-07-29T08:35:15;25.70;1.00
19805;DHT22;10062;51.052;13.756;2023-07-29T08:37:47;25.70;1.00
19805;DHT22;10062;51.052;13.756;2023-07-29T08:40:22;25.70;1.00
19805;DHT22;10062;51.052;13.756;2023-07-29T08:42:58;26.00;1.00
19805;DHT22;10062;51.052;13.756;2023-07-29T08:45:35;26.10;1.00
19805;DHT22;10062;51.052;13.756;2023-07-29T08:48:10;26.50;1.00
19805;DHT22;10062;51.052;13.756;2023-07-29T08:50:44;27.30;1.00
19805;DHT22;10062;51.052;13.756;2023-07-29T08:53:16;28.20;1.00
19805;DHT22;10062;51.052;13.756;2023-07-29T08:55:48;28.40;99.90
19805;DHT22;10062;51.052;13.756;2023-07-29T08:58:20;28.30;99.90
19805;DHT22;10062;51.052;13.756;2023-07-29T09:00:54;27.90;99.90
19805;DHT22;10062;51.052;13.756;2023-07-29T09:03:26;27.90;99.90
19805;DHT22;10062;51.052;13.756;2023-07-29T09:05:58;27.90;99.90
19805;DHT22;10062;51.052;13.756;2023-07-29T09:08:30;28.10;99.90
19805;DHT22;10062;51.052;13.756;2023-07-29T09:11:02;28.10;99.90
19805;DHT22;10062;51.052;13.756;2023-07-29T09:13:34;28.10;99.90
19805;DHT22;10062;51.052;13.756;2023-07-29T09:16:07;28.10;99.90
19805;DHT22;10062;51.052;13.756;2023-07-29T09:18:40;27.60;99.90
19805;DHT22;10062;51.052;13.756;2023-07-29T09:21:12;27.60;99.90
19805;DHT22;10062;51.052;13.756;2023-07-29T09:23:44;27.60;99.90
19805;DHT22;10062;51.052;13.756;2023-07-29T09:26:22;27.60;99.90
19805;DHT22;10062;51.052;13.756;2023-07-29T09:28:55;27.70;99.90
19805;DHT22;10062;51.052;13.756;2023-07-29T09:31:29;27.60;99.90
19805;DHT22;10062;51.052;13.756;2023-07-29T09:34:01;27.50;99.90
19805;DHT22;10062;51.052;13.756;2023-07-29T09:36:34;27.90;99.90
19805;DHT22;10062;51.052;13.756;2023-07-29T09:39:10;28.60;99.90
19805;DHT22;10062;51.052;13.756;2023-07-29T09:41:47;28.80;99.90
19805;DHT22;10062;51.052;13.756;2023-07-29T09:44:19;28.90;99.90
19805;DHT22;10062;51.052;13.756;2023-07-29T09:46:53;28.80;99.90
19805;DHT22;10062;51.052;13.756;2023-07-29T09:49:25;28.40;99.90
19805;DHT22;10062;51.052;13.756;2023-07-29T09:51:57;28.60;99.90
19805;DHT22;10062;51.052;13.756;2023-07-29T09:54:30;28.40;99.90
19805;DHT22;10062;51.052;13.756;2023-07-29T09:57:02;28.00;99.90
19805;DHT22;10062;51.052;13.756;2023-07-29T09:59:34;27.50;99.90
19805;DHT22;10062;51.052;13.756;2023-07-29T10:02:14;27.10;99.90
19805;DHT22;10062;51.052;13.756;2023-07-29T10:04:46;26.90;99.90
19805;DHT22;10062;51.052;13.756;2023-07-29T10:07:19;27.00;99.90
19805;DHT22;10062;51.052;13.756;2023-07-29T10:09:52;27.10;1.00
19805;DHT22;10062;51.052;13.756;2023-07-29T10:12:25;26.80;1.00
19805;DHT22;10062;51.052;13.756;2023-07-29T10:14:59;25.60;1.00
19805;DHT22;10062;51.052;13.756;2023-07-29T10:17:35;24.20;1.00
19805;DHT22;10062;51.052;13.756;2023-07-29T10:20:08;22.70;1.00
19805;DHT22;10062;51.052;13.756;2023-07-29T10:22:41;22.10;1.00
19805;DHT22;10062;51.052;13.756;2023-07-29T10:25:16;21.70;1.00
19805;DHT22;10062;51.052;13.756;2023-07-29T10:27:53;21.50;4.00
19805;DHT22;10062;51.052;13.756;2023-07-29T10:30:28;21.80;1.00
19805;DHT22;10062;51.052;13.756;2023-07-29T10:33:03;22.00;1.00
19805;DHT22;10062;51.052;13.756;2023-07-29T10:35:37;22.40;1.00
19805;DHT22;10062;51.052;13.756;2023-07-29T10:38:09;22.70;1.00
19805;DHT22;10062;51.052;13.756;2023-07-29T10:40:45;23.40;1.00
19805;DHT22;10062;51.052;13.756;2023-07-29T10:43:23;24.20;1.00
19805;DHT22;10062;51.052;13.756;2023-07-29T10:45:56;24.70;1.00
19805;DHT22;10062;51.052;13.756;2023-07-29T10:48:42;25.30;1.00
19805;DHT22;10062;51.052;13.756;2023-07-29T10:51:28;25.40;1.00
19805;DHT22;10062;51.052;13.756;2023-07-29T10:54:10;25.60;1.00
19805;DHT22;10062;51.052;13.756;2023-07-29T10:56:46;25.50;1.00
19805;DHT22;10062;51.052;13.756;2023-07-29T10:59:33;25.50;1.00
19805;DHT22;10062;51.052;13.756;2023-07-29T11:02:15;25.50;1.00
19805;DHT22;10062;51.052;13.756;2023-07-29T11:04:50;25.20;1.00
19805;DHT22;10062;51.052;13.756;2023-07-29T11:07:26;25.20;1.00
19805;DHT22;10062;51.052;13.756;2023-07-29T11:10:00;24.80;99.90
19805;DHT22;10062;51.052;13.756;2023-07-29T11:12:40;25.10;1.00
19805;DHT22;10062;51.052;13.756;2023-07-29T11:15:15;25.10;99.90
19805;DHT22;10062;51.052;13.756;2023-07-29T11:17:49;25.50;1.00
19805;DHT22;10062;51.052;13.756;2023-07-29T11:20:24;25.50;1.00
19805;DHT22;10062;51.052;13.756;2023-07-29T11:22:58;25.60;1.00
19805;DHT22;10062;51.052;13.756;2023-07-29T11:25:31;25.50;1.00
19805;DHT22;10062;51.052;13.756;2023-07-29T11:28:04;25.70;1.00
19805;DHT22;10062;51.052;13.756;2023-07-29T11:30:39;25.40;1.00
19805;DHT22;10062;51.052;13.756;2023-07-29T11:33:10;24.90;99.90
19805;DHT22;10062;51.052;13.756;2023-07-29T11:35:45;24.50;1.00
19805;DHT22;10062;51.052;13.756;2023-07-29T11:38:17;24.50;1.00
19805;DHT22;10062;51.052;13.756;2023-07-29T11:40:58;24.50;1.00
19805;DHT22;10062;51.052;13.756;2023-07-29T11:43:30;24.90;99.90
19805;DHT22;10062;51.052;13.756;2023-07-29T11:46:06;25.30;1.00
19805;DHT22;10062;51.052;13.756;2023-07-29T11:48:38;25.60;1.00
19805;DHT22;10062;51.052;13.756;2023-07-29T11:51:12;25.90;99.90
19805;DHT22;10062;51.052;13.756;2023-07-29T11:53:45;26.00;98.20
19805;DHT22;10062;51.052;13.756;2023-07-29T11:56:17;26.00;1.00
19805;DHT22;10062;51.052;13.756;2023-07-29T11:58:49;26.00;1.00
19805;DHT22;10062;51.052;13.756;2023-07-29T12:01:22;26.10;1.00
19805;DHT22;10062;51.052;13.756;2023-07-29T12:03:54;25.90;1.00
19805;DHT22;10062;51.052;13.756;2023-07-29T12:06:28;25.80;1.00
19805;DHT22;10062;51.052;13.756;2023-07-29T12:09:01;25.80;1.00
19805;DHT22;10062;51.052;13.756;2023-07-29T12:11:33;25.90;1.00
19805;DHT22;10062;51.052;13.756;2023-07-29T12:14:07;25.90;1.00
19805;DHT22;10062;51.052;13.756;2023-07-29T12:16:42;25.70;1.00
19805;DHT22;10062;51.052;13.756;2023-07-29T12:19:15;25.50;1.00
19805;DHT22;10062;51.052;13.756;2023-07-29T12:21:49;25.60;1.00
19805;DHT22;10062;51.052;13.756;2023-07-29T12:24:22;25.70;1.00
19805;DHT22;10062;51.052;13.756;2023-07-29T12:26:54;25.40;1.00
19805;DHT22;10062;51.052;13.756;2023-07-29T12:29:26;25.30;1.00
19805;DHT22;10062;51.052;13.756;2023-07-29T12:31:59;25.20;1.00
19805;DHT22;10062;51.052;13.756;2023-07-29T12:34:32;25.30;1.00
19805;DHT22;10062;51.052;13.756;2023-07-29T12:37:06;25.60;1.00
19805;DHT22;10062;51.052;13.756;2023-07-29T12:39:40;25.80;99.90
19805;DHT22;10062;51.052;13.756;2023-07-29T12:42:12;25.70;1.00
19805;DHT22;10062;51.052;13.756;2023-07-29T12:44:44;25.60;1.00
19805;DHT22;10062;51.052;13.756;2023-07-29T12:47:15;25.80;99.90
19805;DHT22;10062;51.052;13.756;2023-07-29T12:49:47;25.80;99.90
19805;DHT22;10062;51.052;13.756;2023-07-29T12:52:20;25.70;1.00
19805;DHT22;10062;51.052;13.756;2023-07-29T12:54:52;25.90;1.00
19805;DHT22;10062;51.052;13.756;2023-07-29T12:57:24;25.90;1.00
19805;DHT22;10062;51.052;13.756;2023-07-29T12:59:55;26.10;1.00
19805;DHT22;10062;51.052;13.756;2023-07-29T13:02:27;26.10;99.90
19805;DHT22;10062;51.052;13.756;2023-07-29T13:04:59;26.10;99.90
19805;DHT22;10062;51.052;13.756;2023-07-29T13:07:32;26.20;99.90
19805;DHT22;10062;51.052;13.756;2023-07-29T13:10:04;26.50;1.00
19805;DHT22;10062;51.052;13.756;2023-07-29T13:12:36;26.70;96.50
19805;DHT22;10062;51.052;13.756;2023-07-29T13:15:08;27.00;90.20
19805;DHT22;10062;51.052;13.756;2023-07-29T13:17:40;27.20;1.00
19805;DHT22;10062;51.052;13.756;2023-07-29T13:20:12;27.20;92.30
19805;DHT22;10062;51.052;13.756;2023-07-29T13:22:45;27.10;99.90
19805;DHT22;10062;51.052;13.756;2023-07-29T13:25:17;27.00;12.70
19805;DHT22;10062;51.052;13.756;2023-07-29T13:27:49;27.10;1.00
19805;DHT22;10062;51.052;13.756;2023-07-29T13:30:20;26.80;9.40
19805;DHT22;10062;51.052;13.756;2023-07-29T13:32:52;26.70;30.80
19805;DHT22;10062;51.052;13.756;2023-07-29T13:35:24;26.80;99.90
19805;DHT22;10062;51.052;13.756;2023-07-29T13:37:57;26.70;99.90
19805;DHT22;10062;51.052;13.756;2023-07-29T13:40:29;26.60;99.90
19805;DHT22;10062;51.052;13.756;2023-07-29T13:43:00;26.80;99.90
19805;DHT22;10062;51.052;13.756;2023-07-29T13:45:34;27.10;99.90
19805;DHT22;10062;51.052;13.756;2023-07-29T13:48:05;27.30;1.00
19805;DHT22;10062;51.052;13.756;2023-07-29T13:50:37;27.60;1.00
19805;DHT22;10062;51.052;13.756;2023-07-29T13:53:10;27.80;1.00
19805;DHT22;10062;51.052;13.756;2023-07-29T13:55:42;28.00;1.00
19805;DHT22;10062;51.052;13.756;2023-07-29T13:58:14;28.30;1.00
19805;DHT22;10062;51.052;13.756;2023-07-29T14:00:45;28.70;1.00
19805;DHT22;10062;51.052;13.756;2023-07-29T14:03:17;29.10;1.00
19805;DHT22;10062;51.052;13.756;2023-07-29T14:05:49;29.30;99.90
19805;DHT22;10062;51.052;13.756;2023-07-29T14:08:22;29.50;99.90
19805;DHT22;10062;51.052;13.756;2023-07-29T14:10:54;29.50;99.90
19805;DHT22;10062;51.052;13.756;2023-07-29T14:13:26;29.70;99.90
19805;DHT22;10062;51.052;13.756;2023-07-29T14:16:00;29.70;65.90
19805;DHT22;10062;51.052;13.756;2023-07-29T14:18:32;29.60;30.60
19805;DHT22;10062;51.052;13.756;2023-07-29T14:21:04;29.70;15.00
19805;DHT22;10062;51.052;13.756;2023-07-29T14:23:37;30.00;35.00
19805;DHT22;10062;51.052;13.756;2023-07-29T14:26:08;30.10;1.00
19805;DHT22;10062;51.052;13.756;2023-07-29T14:28:41;30.30;1.00
19805;DHT22;10062;51.052;13.756;2023-07-29T14:31:12;30.00;1.00
19805;DHT22;10062;51.052;13.756;2023-07-29T14:33:44;30.10;1.00
19805;DHT22;10062;51.052;13.756;2023-07-29T14:36:16;28.90;1.00
19805;DHT22;10062;51.052;13.756;2023-07-29T14:38:49;30.10;1.00
19805;DHT22;10062;51.052;13.756;2023-07-29T14:41:21;30.30;1.00
19805;DHT22;10062;51.052;13.756;2023-07-29T14:43:53;30.50;1.00
19805;DHT22;10062;51.052;13.756;2023-07-29T14:46:24;30.70;1.00
19805;DHT22;10062;51.052;13.756;2023-07-29T14:48:56;30.70;1.00
19805;DHT22;10062;51.052;13.756;2023-07-29T14:51:28;30.60;1.00
19805;DHT22;10062;51.052;13.756;2023-07-29T14:54:01;30.50;1.00
19805;DHT22;10062;51.052;13.756;2023-07-29T14:56:33;30.80;1.00
19805;DHT22;10062;51.052;13.756;2023-07-29T14:59:05;30.80;1.00
19805;DHT22;10062;51.052;13.756;2023-07-29T15:01:36;30.90;1.00
19805;DHT22;10062;51.052;13.756;2023-07-29T15:04:08;31.20;1.00
19805;DHT22;10062;51.052;13.756;2023-07-29T15:06:40;31.40;1.00
19805;DHT22;10062;51.052;13.756;2023-07-29T15:09:13;31.30;1.00
19805;DHT22;10062;51.052;13.756;2023-07-29T15:11:45;31.40;1.00
19805;DHT22;10062;51.052;13.756;2023-07-29T15:14:17;31.40;1.00
19805;DHT22;10062;51.052;13.756;2023-07-29T15:16:48;31.20;1.00
19805;DHT22;10062;51.052;13.756;2023-07-29T15:19:20;31.00;1.00
19805;DHT22;10062;51.052;13.756;2023-07-29T15:21:52;31.00;1.00
19805;DHT22;10062;51.052;13.756;2023-07-29T15:24:25;30.90;1.00
19805;DHT22;10062;51.052;13.756;2023-07-29T15:26:57;30.90;1.00
19805;DHT22;10062;51.052;13.756;2023-07-29T15:29:28;30.60;1.00
19805;DHT22;10062;51.052;13.756;2023-07-29T15:32:00;30.40;1.00
19805;DHT22;10062;51.052;13.756;2023-07-29T15:34:32;30.10;1.00
19805;DHT22;10062;51.052;13.756;2023-07-29T15:37:05;30.10;1.00
19805;DHT22;10062;51.052;13.756;2023-07-29T15:39:38;30.10;1.00
19805;DHT22;10062;51.052;13.756;2023-07-29T15:42:10;29.80;1.00
19805;DHT22;10062;51.052;13.756;2023-07-29T15:44:41;29.60;1.00
19805;DHT22;10062;51.052;13.756;2023-07-29T15:47:13;29.50;1.00
19805;DHT22;10062;51.052;13.756;2023-07-29T15:49:46;29.10;1.00
19805;DHT22;10062;51.052;13.756;2023-07-29T15:52:18;28.90;1.00
19805;DHT22;10062;51.052;13.756;2023-07-29T15:54:51;28.80;1.00
19805;DHT22;10062;51.052;13.756;2023-07-29T15:57:25;28.70;1.00
19805;DHT22;10062;51.052;13.756;2023-07-29T15:59:56;28.70;1.00
19805;DHT22;10062;51.052;13.756;2023-07-29T16:02:28;28.40;1.00